createdAt,value
2022-11-08T00:04:49.215Z,15.4
2022-11-08T00:10:24.680Z,15.3
2022-11-08T00:16:02.037Z,15.3
2022-11-08T00:21:37.420Z,15.3
2022-11-08T00:27:12.249Z,15.3
2022-11-08T00:32:48.422Z,15.2
2022-11-08T00:38:23.548Z,15.2
2022-11-08T00:43:58.432Z,15.2
2022-11-08T00:49:33.366Z,15.2
2022-11-08T00:55:08.255Z,15.2
2022-11-08T01:00:43.298Z,15.2
2022-11-08T01:06:18.777Z,15.2
2022-11-08T01:11:54.667Z,15.2
2022-11-08T01:17:31.024Z,15.1
2022-11-08T01:23:06.578Z,15.2
2022-11-08T01:29:03.530Z,15.2
2022-11-08T01:34:38.600Z,15.3
2022-11-08T01:40:13.911Z,15.2
2022-11-08T01:45:49.458Z,15.2
2022-11-08T01:51:25.227Z,15.1
2022-11-08T01:57:00.216Z,15.2
2022-11-08T02:02:35.293Z,15.3
2022-11-08T02:08:11.997Z,15.3
2022-11-08T02:13:48.042Z,15.4
2022-11-08T02:19:22.879Z,15.4
2022-11-08T02:24:58.305Z,15.5
2022-11-08T02:30:37.210Z,15.5
2022-11-08T02:36:12.051Z,15.6
2022-11-08T02:41:47.035Z,15.6
2022-11-08T02:47:44.601Z,15.5
2022-11-08T02:53:17.352Z,15.3
2022-11-08T02:58:52.017Z,15.2
2022-11-08T03:04:27.013Z,15.1
2022-11-08T03:10:02.152Z,15
2022-11-08T03:15:37.325Z,15
2022-11-08T03:21:12.128Z,15
2022-11-08T03:26:51.892Z,15.1
2022-11-08T03:32:27.671Z,15.1
2022-11-08T03:38:03.506Z,15.2
2022-11-08T03:43:38.420Z,15.1
2022-11-08T03:49:35.187Z,15
2022-11-08T03:55:08.991Z,15
2022-11-08T04:00:44.059Z,15.1
2022-11-08T04:06:19.182Z,15.1
2022-11-08T04:12:00.325Z,15
2022-11-08T04:17:36.179Z,15
2022-11-08T04:23:10.886Z,14.9
2022-11-08T04:28:45.844Z,14.9
2022-11-08T04:34:30.403Z,15
2022-11-08T04:40:05.643Z,15
2022-11-08T04:45:40.745Z,15.1
2022-11-08T04:51:16.567Z,15.2
2022-11-08T04:56:51.346Z,15.2
2022-11-08T05:02:26.507Z,15.1
2022-11-08T05:08:03.944Z,15.1
2022-11-08T05:13:39.304Z,15
2022-11-08T05:19:14.202Z,15.1
2022-11-08T05:24:50.399Z,15.1
2022-11-08T05:30:26.265Z,15.2
2022-11-08T05:36:05.786Z,15.1
2022-11-08T05:41:40.986Z,15
2022-11-08T05:47:37.478Z,15
2022-11-08T05:53:10.355Z,14.9
2022-11-08T05:58:45.079Z,14.9
2022-11-08T06:04:20.077Z,14.8
2022-11-08T06:10:13.611Z,14.8
2022-11-08T06:15:48.568Z,14.8
2022-11-08T06:21:29.279Z,14.8
2022-11-08T06:27:04.452Z,14.7
2022-11-08T06:32:39.325Z,14.7
2022-11-08T06:38:26.221Z,14.7
2022-11-08T06:44:01.292Z,14.6
2022-11-08T06:49:37.183Z,14.6
2022-11-08T06:55:13.180Z,14.3
2022-11-08T07:00:49.323Z,13.9
2022-11-08T07:06:24.450Z,13.7
2022-11-08T07:11:59.271Z,13.9
2022-11-08T07:17:39.280Z,14.3
2022-11-08T07:23:16.417Z,14.6
2022-11-08T07:28:53.302Z,14.8
2022-11-08T07:34:33.693Z,15
2022-11-08T07:40:08.635Z,14.9
2022-11-08T07:46:07.788Z,14.7
2022-11-08T07:51:42.491Z,14.8
2022-11-08T07:57:17.628Z,14.9
2022-11-08T08:02:53.320Z,15
2022-11-08T08:08:29.885Z,14.8
2022-11-08T08:14:05.776Z,14.8
2022-11-08T08:19:43.617Z,14.9
2022-11-08T08:25:19.860Z,14.9
2022-11-08T08:30:54.909Z,14.9
2022-11-08T08:36:36.758Z,14.9
2022-11-08T08:42:11.669Z,15
2022-11-08T08:47:47.979Z,15.3
2022-11-08T08:53:44.212Z,15.6
2022-11-08T09:07:14.911Z,16.1
2022-11-08T09:12:51.126Z,16.3
2022-11-08T09:18:27.486Z,15.9
2022-11-08T09:24:03.518Z,15.9
2022-11-08T09:29:48.975Z,16.3
2022-11-08T09:35:31.814Z,16.2
2022-11-08T09:41:09.622Z,16
2022-11-08T09:46:46.886Z,15.9
2022-11-08T09:52:22.160Z,15.8
2022-11-08T09:58:02.919Z,15.8
2022-11-08T10:04:22.602Z,16
2022-11-08T10:09:57.462Z,16
2022-11-08T10:15:32.544Z,16.1
2022-11-08T10:21:10.086Z,16.2
2022-11-08T10:26:45.102Z,16.1
2022-11-08T10:32:45.106Z,16.2
2022-11-08T10:38:20.014Z,16.3
2022-11-08T10:43:55.154Z,16
2022-11-08T10:49:30.149Z,16.2
2022-11-08T10:55:08.497Z,16.2
2022-11-08T11:00:43.712Z,16.3
2022-11-08T11:06:24.691Z,16.2
2022-11-08T11:12:00.764Z,16
2022-11-08T11:17:42.647Z,16.4
2022-11-08T11:23:17.658Z,16.5
2022-11-08T11:28:52.577Z,16.4
2022-11-08T11:34:29.270Z,16.4
2022-11-08T11:40:04.145Z,16.4
2022-11-08T11:45:47.159Z,16.5
2022-11-08T11:51:22.396Z,16.3
2022-11-08T11:56:58.937Z,16.3
2022-11-08T12:02:34.080Z,16.3
2022-11-08T12:08:10.267Z,16.4
2022-11-08T12:13:46.219Z,16.5
2022-11-08T12:19:29.859Z,16.5
2022-11-08T12:25:05.044Z,16.4
2022-11-08T12:30:39.983Z,16.3
2022-11-08T12:36:14.960Z,16.3
2022-11-08T12:41:50.186Z,16.5
2022-11-08T12:47:25.126Z,16.5
2022-11-08T12:53:00.335Z,16.6
2022-11-08T12:58:35.634Z,16.2
2022-11-08T13:04:10.257Z,16.2
2022-11-08T13:09:45.476Z,15.9
2022-11-08T13:15:20.725Z,16
2022-11-08T13:20:56.738Z,16
2022-11-08T13:26:31.660Z,16.1
2022-11-08T13:32:06.631Z,16.1
2022-11-08T13:37:43.260Z,16.2
2022-11-08T13:43:26.780Z,16.3
2022-11-08T13:49:23.655Z,16.2
2022-11-08T13:54:56.908Z,16.1
2022-11-08T14:00:35.761Z,16.1
2022-11-08T14:06:10.584Z,16.3
2022-11-08T14:11:45.753Z,16.5
2022-11-08T14:17:20.776Z,16.4
2022-11-08T14:23:01.683Z,16.4
2022-11-08T14:28:37.964Z,16.4
2022-11-08T14:34:14.055Z,16.4
2022-11-08T14:39:50.513Z,16.5
2022-11-08T14:45:26.143Z,16.5
2022-11-08T14:51:01.404Z,16.6
2022-11-08T14:56:37.200Z,16.6
2022-11-08T15:02:15.903Z,17.5
2022-11-08T15:07:50.975Z,16.9
2022-11-08T15:13:25.804Z,16.4
2022-11-08T15:19:10.687Z,16.3
2022-11-08T15:24:45.726Z,16.1
2022-11-08T15:30:20.492Z,15.9
2022-11-08T15:35:56.285Z,15.8
2022-11-08T15:41:30.967Z,15.8
2022-11-08T15:47:06.303Z,15.8
2022-11-08T15:52:44.038Z,15.5
2022-11-08T15:58:19.384Z,15.4
2022-11-08T16:03:56.635Z,15.3
2022-11-08T16:09:31.573Z,15.2
2022-11-08T16:15:06.629Z,15.1
2022-11-08T16:20:42.145Z,15
2022-11-08T16:26:16.966Z,15
2022-11-08T16:32:01.635Z,15.2
2022-11-08T16:37:36.617Z,15.2
2022-11-08T16:43:11.346Z,15.1
2022-11-08T16:48:46.676Z,14.9
2022-11-08T16:54:30.950Z,14.9
2022-11-08T17:00:05.661Z,15
2022-11-08T17:05:40.902Z,15.1
2022-11-08T17:11:16.152Z,15.1
2022-11-08T17:17:02.371Z,15.4
2022-11-08T17:22:37.195Z,15.5
2022-11-08T17:28:12.348Z,15.5
2022-11-08T17:33:47.491Z,15.6
2022-11-08T17:39:23.452Z,15.6
2022-11-08T17:44:58.435Z,15.6
2022-11-08T17:50:33.398Z,15.6
2022-11-08T17:56:09.219Z,15.7
2022-11-08T18:01:45.162Z,15.7
2022-11-08T18:07:21.563Z,15.7
2022-11-08T18:12:57.406Z,15.7
2022-11-08T18:18:33.280Z,15.7
2022-11-08T18:24:09.292Z,15.7
2022-11-08T18:29:44.660Z,15.7
2022-11-08T18:35:20.800Z,15.7
2022-11-08T18:40:55.610Z,15.7
2022-11-08T18:46:52.648Z,15.7
2022-11-08T18:52:25.675Z,15.7
2022-11-08T18:58:00.853Z,15.8
2022-11-08T19:03:36.613Z,15.8
2022-11-08T19:09:11.646Z,15.8
2022-11-08T19:14:49.225Z,15.8
2022-11-08T19:20:24.613Z,15.8
2022-11-08T19:25:59.703Z,15.8
2022-11-08T19:31:34.896Z,15.8
2022-11-08T19:37:09.996Z,15.8
2022-11-08T19:42:54.713Z,15.8
2022-11-08T19:48:51.729Z,15.8
2022-11-08T19:54:24.373Z,15.8
2022-11-08T20:00:00.293Z,15.8
2022-11-08T20:05:35.058Z,15.8
2022-11-08T20:11:10.390Z,15.9
2022-11-08T20:16:50.769Z,15.9
2022-11-08T20:22:28.789Z,15.9
2022-11-08T20:28:05.183Z,15.9
2022-11-08T20:33:40.381Z,15.9
2022-11-08T20:39:16.766Z,15.9
2022-11-08T20:44:53.104Z,15.9
2022-11-08T20:50:28.357Z,15.9
2022-11-08T20:56:03.283Z,15.9
2022-11-08T21:01:39.330Z,15.9
2022-11-08T21:15:27.116Z,15.9
2022-11-08T21:21:03.427Z,15.8
2022-11-08T21:26:39.467Z,15.8
2022-11-08T21:32:14.184Z,15.8
2022-11-08T21:37:49.413Z,15.8
2022-11-08T21:43:24.425Z,15.8
2022-11-08T21:49:21.376Z,15.8
2022-11-08T21:54:54.148Z,15.9
2022-11-08T22:00:29.080Z,15.9
2022-11-08T22:06:04.717Z,15.9
2022-11-08T22:11:40.716Z,15.9
2022-11-08T22:17:15.871Z,15.9
2022-11-08T22:22:50.549Z,15.9
2022-11-08T22:28:25.813Z,15.9
2022-11-08T22:34:00.909Z,15.9
2022-11-08T22:39:35.872Z,16
2022-11-08T22:45:11.484Z,16
2022-11-08T22:50:47.183Z,16
2022-11-08T22:56:22.060Z,16
2022-11-08T23:01:58.163Z,16
2022-11-08T23:07:33.163Z,15.9
2022-11-08T23:13:09.036Z,15.9
2022-11-08T23:18:43.867Z,15.9
2022-11-08T23:24:19.640Z,15.9
2022-11-08T23:29:54.573Z,15.9
2022-11-08T23:35:29.642Z,15.9
2022-11-08T23:41:04.506Z,15.9
2022-11-08T23:47:01.108Z,15.9
2022-11-08T23:52:34.809Z,15.8
2022-11-08T23:58:10.413Z,15.9
